Time;durP1;ratioP1;P1;durP2;ratioP2;P2;SDS_P1;SDS_P2;PMS_P1;PMS_P2;Temp;Humidity;BMP_temperature;BMP_pressure;BME280_temperature;BME280_humidity;BME280_pressure;Samples;Min_cycle;Max_cycle;Signal;HPM_P1;HPM_P2
2022/05/18 00:01:04;;;;;;;8.82;7.80;;;;;;;15.55;87.30;101298.84;4990496;28;20061;-79
2022/05/18 00:03:35;;;;;;;11.23;7.68;;;;;;;15.60;87.12;101309.41;4973338;28;20053;-79
2022/05/18 00:06:02;;;;;;;10.38;7.40;;;;;;;15.62;87.07;101310.28;4989495;28;20054;-79
2022/05/18 00:08:28;;;;;;;9.25;7.35;;;;;;;15.63;86.60;101314.69;4972802;28;20039;-79
2022/05/18 00:10:53;;;;;;;9.85;8.80;;;;;;;15.68;86.83;101312.84;4973167;28;20042;-78
2022/05/18 00:13:19;;;;;;;9.93;7.93;;;;;;;15.77;86.31;101306.53;4988665;28;20045;-79
2022/05/18 00:15:46;;;;;;;8.48;7.57;;;;;;;15.83;86.39;101310.91;4989996;28;20042;-80
2022/05/18 00:18:11;;;;;;;8.40;7.32;;;;;;;15.88;86.13;101303.72;4990104;28;20049;-79
2022/05/18 00:20:37;;;;;;;10.90;7.70;;;;;;;15.90;85.54;101308.13;4988903;28;20035;-79
2022/05/18 00:23:04;;;;;;;10.35;8.20;;;;;;;15.95;85.40;101319.53;4981168;28;20030;-80
2022/05/18 00:25:33;;;;;;;9.70;7.82;;;;;;;15.95;85.26;101311.56;4972684;28;20073;-79
2022/05/18 00:27:58;;;;;;;7.78;6.97;;;;;;;15.87;85.60;101312.59;4971753;28;20077;-79
2022/05/18 00:30:26;;;;;;;8.80;7.90;;;;;;;15.80;85.52;101313.59;4972360;28;20035;-79
2022/05/18 00:32:52;;;;;;;8.65;7.75;;;;;;;15.69;85.81;101316.41;4987717;28;20117;-79
2022/05/18 00:35:18;;;;;;;8.48;7.00;;;;;;;15.65;85.89;101318.22;4988885;28;20098;-79
2022/05/18 00:37:44;;;;;;;9.75;8.40;;;;;;;15.63;85.59;101322.66;4956284;28;20073;-79
2022/05/18 00:40:12;;;;;;;9.18;7.45;;;;;;;15.61;85.73;101316.47;4971627;28;20042;-79
2022/05/18 00:42:38;;;;;;;8.80;7.75;;;;;;;15.57;85.71;101328.97;4984319;28;20050;-79
2022/05/18 00:45:05;;;;;;;9.43;8.27;;;;;;;15.51;86.06;101322.81;4988644;28;20038;-79
2022/05/18 00:47:30;;;;;;;10.15;8.57;;;;;;;15.47;86.12;101321.13;4971383;28;20026;-79
2022/05/18 00:50:04;;;;;;;10.65;8.23;;;;;;;15.48;86.04;101325.53;4988534;28;20058;-78
2022/05/18 00:52:35;;;;;;;9.57;8.05;;;;;;;15.49;86.20;101335.31;4983137;28;20132;-79
2022/05/18 00:55:01;;;;;;;10.57;9.15;;;;;;;15.51;86.30;101336.13;4984000;28;20043;-79
2022/05/18 00:57:34;;;;;;;11.75;9.88;;;;;;;15.57;86.42;101336.94;4969686;28;20089;-79
2022/05/18 01:00:07;;;;;;;10.05;8.68;;;;;;;15.62;86.30;101334.22;4970824;28;20038;-79
2022/05/18 01:02:36;;;;;;;10.40;9.10;;;;;;;15.67;85.64;101352.78;4988474;28;20030;-79
2022/05/18 01:05:06;;;;;;;9.55;8.27;;;;;;;15.68;85.54;101338.56;4981086;28;20031;-79
2022/05/18 01:07:39;;;;;;;14.15;9.90;;;;;;;15.65;85.73;101339.50;4984405;28;20043;-78
2022/05/18 01:10:06;;;;;;;10.05;9.02;;;;;;;15.68;85.96;101339.44;4970757;28;20038;-78
2022/05/18 01:12:32;;;;;;;9.50;8.00;;;;;;;15.68;86.05;101336.78;4979895;28;20038;-79
2022/05/18 01:15:10;;;;;;;9.80;7.72;;;;;;;15.72;85.48;101343.88;4988492;28;20045;-79
2022/05/18 01:17:39;;;;;;;10.80;9.27;;;;;;;15.78;85.50;101346.44;4985597;28;20034;-79
2022/05/18 01:20:08;;;;;;;9.07;8.15;;;;;;;15.82;85.27;101351.72;4970256;28;20043;-78
2022/05/18 01:22:48;;;;;;;10.45;9.35;;;;;;;15.81;85.18;101356.16;4987630;28;20038;-79
2022/05/18 01:25:46;;;;;;;11.07;9.27;;;;;;;15.81;85.03;101347.28;4979491;28;20042;-78
2022/05/18 01:28:11;;;;;;;12.50;11.20;;;;;;;15.79;84.58;101363.28;4986570;28;20034;-78
2022/05/18 01:30:42;;;;;;;13.00;9.93;;;;;;;15.79;84.48;101357.94;4970983;28;20064;-79
2022/05/18 01:33:09;;;;;;;10.65;9.52;;;;;;;15.76;84.67;101361.53;4988327;28;20030;-78
2022/05/18 01:35:39;;;;;;;11.43;10.23;;;;;;;15.74;84.31;101368.66;4986984;28;20098;-79
2022/05/18 01:38:06;;;;;;;13.43;11.88;;;;;;;15.60;83.88;101367.06;4987879;28;20043;-79
2022/05/18 01:40:40;;;;;;;12.63;10.95;;;;;;;15.38;84.73;101367.38;4986941;28;20125;-78
2022/05/18 01:43:27;;;;;;;12.38;10.25;;;;;;;15.19;84.72;101368.47;4988192;28;20053;-79
2022/05/18 01:45:56;;;;;;;12.63;10.43;;;;;;;14.99;85.22;101369.59;4979190;28;20046;-79
2022/05/18 01:48:30;;;;;;;10.98;9.02;;;;;;;14.90;86.43;101370.56;4987292;28;20034;-79
2022/05/18 01:50:57;;;;;;;13.13;11.70;;;;;;;14.86;86.98;101374.16;4968057;28;20042;-80
2022/05/18 01:53:22;;;;;;;11.85;10.57;;;;;;;14.83;86.90;101371.53;4988568;28;20042;-79
2022/05/18 01:55:48;;;;;;;13.00;9.98;;;;;;;14.80;86.80;101374.22;4988232;28;20038;-79
2022/05/18 01:58:15;;;;;;;11.43;10.23;;;;;;;14.71;86.33;101381.41;4970565;28;20038;-78
2022/05/18 02:00:41;;;;;;;14.27;12.70;;;;;;;14.57;86.96;101381.53;4970723;28;20051;-79
2022/05/18 02:03:07;;;;;;;17.27;14.45;;;;;;;14.50;87.82;101390.41;4985549;28;20039;-78
2022/05/18 02:05:32;;;;;;;15.50;13.90;;;;;;;14.42;89.63;101394.00;4985717;28;20461;-79
2022/05/18 02:07:58;;;;;;;19.52;17.52;;;;;;;14.42;90.12;101394.00;4986819;28;20047;-78
2022/05/18 02:10:24;;;;;;;20.58;18.48;;;;;;;14.47;90.63;101396.63;4986795;28;20074;-79
2022/05/18 02:12:51;;;;;;;19.15;16.33;;;;;;;14.47;90.95;101397.50;4969786;28;20058;-80
2022/05/18 02:15:16;;;;;;;20.30;18.23;;;;;;;14.50;90.74;101401.91;4966914;28;20043;-79
2022/05/18 02:17:42;;;;;;;22.15;19.77;;;;;;;14.53;90.23;101401.03;4970398;28;20042;-79
2022/05/18 02:20:13;;;;;;;23.67;21.25;;;;;;;14.55;89.99;101405.44;4986923;28;20061;-78
2022/05/18 02:22:38;;;;;;;25.38;22.67;;;;;;;14.52;89.39;101393.94;4969486;28;20133;-79
2022/05/18 02:25:04;;;;;;;27.15;24.13;;;;;;;14.51;89.22;101405.44;4969586;28;20047;-79
2022/05/18 02:27:29;;;;;;;25.48;22.98;;;;;;;14.48;89.33;101414.31;4983169;28;20030;-80
2022/05/18 02:29:55;;;;;;;24.00;21.48;;;;;;;14.46;89.53;101417.00;4986374;28;20062;-78
2022/05/18 02:32:20;;;;;;;26.08;23.27;;;;;;;14.45;89.35;101415.22;4969525;28;20046;-79
2022/05/18 02:34:46;;;;;;;25.30;21.50;;;;;;;14.42;89.40;101420.56;4976677;28;20043;-78
2022/05/18 02:37:11;;;;;;;26.02;21.80;;;;;;;14.42;89.51;101425.00;4987415;28;20091;-79
2022/05/18 02:39:36;;;;;;;18.30;16.42;;;;;;;14.37;89.08;101427.69;4987269;28;20047;-79
2022/05/18 02:42:02;;;;;;;20.63;18.23;;;;;;;14.34;89.02;101424.19;4986462;28;20039;-78
2022/05/18 02:44:27;;;;;;;20.88;18.67;;;;;;;14.29;88.94;101432.19;4986798;28;20074;-79
2022/05/18 02:46:57;;;;;;;21.48;19.00;;;;;;;14.27;88.76;101428.63;4969659;28;20089;-79
2022/05/18 02:49:24;;;;;;;21.70;19.40;;;;;;;14.21;88.60;101441.97;4969757;28;20529;-79
2022/05/18 02:51:51;;;;;;;21.10;18.98;;;;;;;14.15;88.08;101432.28;4969528;28;20034;-79
2022/05/18 02:57:02;;;;;;;19.08;16.85;;;;;;;13.99;88.53;101439.47;4986404;28;20042;-79
2022/05/18 02:59:27;;;;;;;18.67;16.77;;;;;;;13.87;88.79;101426.25;4970053;28;20038;-79
2022/05/18 03:01:52;;;;;;;21.27;19.08;;;;;;;13.78;89.30;101436.88;4986952;28;20474;-78
2022/05/18 03:04:18;;;;;;;20.00;17.17;;;;;;;13.70;89.43;101434.31;4986711;28;20102;-79
2022/05/18 03:06:44;;;;;;;18.15;16.23;;;;;;;13.66;89.86;101437.84;4970026;28;20047;-79
2022/05/18 03:09:09;;;;;;;17.92;16.10;;;;;;;13.61;89.70;101442.28;4987339;28;20127;-80
2022/05/18 03:11:35;;;;;;;16.90;14.95;;;;;;;13.54;89.90;101443.19;4986356;28;20045;-79
2022/05/18 03:14:00;;;;;;;21.23;17.42;;;;;;;13.48;89.93;101444.09;4961173;28;20046;-79
2022/05/18 03:16:27;;;;;;;18.95;17.05;;;;;;;13.45;89.69;101452.06;4985836;28;20042;-79
2022/05/18 03:18:53;;;;;;;19.60;17.55;;;;;;;13.42;89.94;101452.09;4972664;28;20070;-79
2022/05/18 03:24:03;;;;;;;19.67;17.05;;;;;;;13.39;89.58;101460.06;4987182;28;20094;-80
2022/05/18 03:26:29;;;;;;;18.10;16.13;;;;;;;13.46;90.06;101458.25;4989262;28;20505;-80
2022/05/18 03:28:56;;;;;;;19.00;16.25;;;;;;;13.53;89.79;101466.19;4989321;28;20053;-78
2022/05/18 03:31:31;;;;;;;21.10;18.88;;;;;;;13.59;90.19;101462.63;4969848;28;20042;-79
2022/05/18 03:33:58;;;;;;;20.63;18.45;;;;;;;13.74;89.43;101472.31;4968873;28;20433;-80
2022/05/18 03:36:24;;;;;;;25.25;20.08;;;;;;;13.85;89.08;101473.13;4973278;28;20050;-78
2022/05/18 03:38:58;;;;;;;22.50;18.80;;;;;;;13.92;88.48;101466.91;4990978;28;20038;-79
2022/05/18 03:41:35;;;;;;;22.80;19.05;;;;;;;14.05;88.13;101473.03;4990022;28;20038;-79
2022/05/18 03:44:05;;;;;;;25.45;20.17;;;;;;;14.13;87.26;101470.34;4972574;28;20053;-79
2022/05/18 03:46:40;;;;;;;26.05;21.50;;;;;;;14.19;87.08;101480.91;4968553;28;20098;-79
2022/05/18 03:49:07;;;;;;;25.55;22.38;;;;;;;14.25;86.87;101486.19;4979060;28;20062;-78
2022/05/18 03:51:33;;;;;;;27.25;21.38;;;;;;;14.29;86.02;101482.63;4980441;28;20038;-79
2022/05/18 03:53:58;;;;;;;30.88;23.40;;;;;;;14.35;86.33;101487.88;4962530;28;20070;-79
2022/05/18 03:56:24;;;;;;;29.40;25.05;;;;;;;14.46;86.13;101485.16;4974644;28;20031;-79
2022/05/18 03:58:50;;;;;;;30.13;24.00;;;;;;;14.58;85.46;101486.88;4961354;28;20034;-79
2022/05/18 04:01:15;;;;;;;29.42;24.23;;;;;;;14.61;84.99;101490.41;4979069;28;20093;-80
2022/05/18 04:03:45;;;;;;;32.83;24.52;;;;;;;14.59;85.02;101488.63;4975229;28;20058;-80
2022/05/18 04:06:11;;;;;;;27.63;22.92;;;;;;;14.61;85.25;101490.41;4982117;28;20035;-79
2022/05/18 04:08:36;;;;;;;30.88;24.63;;;;;;;14.66;85.04;101496.56;4970229;28;20133;-79
2022/05/18 04:14:47;;;;;;;32.47;27.90;;;;;;;14.77;84.47;101487.63;4987232;28;20050;-81
2022/05/18 04:17:27;;;;;;;33.83;27.77;;;;;;;14.77;84.16;101493.81;4979280;28;20106;-79
2022/05/18 04:20:06;;;;;;;34.58;29.58;;;;;;;14.83;83.74;101504.41;4958564;28;20043;-80
2022/05/18 04:22:56;;;;;;;38.90;33.15;;;;;;;14.90;83.73;101503.44;4983696;28;20058;-79
2022/05/18 04:25:59;;;;;;;36.22;30.95;;;;;;;14.96;82.73;101494.56;4985077;28;20057;-80
2022/05/18 04:28:26;;;;;;;31.15;27.02;;;;;;;15.00;83.24;101506.91;4980018;28;20042;-78
2022/05/18 04:31:00;;;;;;;28.40;23.85;;;;;;;15.09;82.40;101504.19;4968560;28;20026;-78
2022/05/18 04:34:17;;;;;;;30.85;26.45;;;;;;;15.12;81.39;101504.16;4968297;28;20031;-81
2022/05/18 04:38:06;;;;;;;31.52;26.92;;;;;;;15.08;81.43;101509.50;4923358;29;20040;-80
2022/05/18 04:45:36;;;;;;;21.65;19.38;;;;;;;15.08;79.74;101505.06;4889297;29;20109;-80
2022/05/18 04:48:57;;;;;;;17.65;15.85;;;;;;;15.00;79.22;101516.66;4891398;29;20134;-81
2022/05/18 04:51:59;;;;;;;19.38;17.35;;;;;;;14.98;79.62;101515.78;4886998;29;20377;-81
2022/05/18 04:54:40;;;;;;;18.70;16.75;;;;;;;14.96;78.95;101514.91;4885671;29;20049;-80
2022/05/18 05:05:45;;;;;;;19.15;16.40;;;;;;;14.93;77.61;101523.81;4808552;29;20051;-80
2022/05/18 05:29:17;;;;;;;;;;;;;;;;;;;;;
2022/05/18 05:43:31;;;;;;;12.23;9.90;;;;;;;15.68;69.82;101546.16;4961997;29;20074;-80
2022/05/18 05:46:27;;;;;;;13.65;8.48;;;;;;;15.71;69.53;101536.38;4990314;28;20065;-80
2022/05/18 05:49:21;;;;;;;14.85;7.03;;;;;;;15.62;68.64;101547.09;5019356;28;20065;-81
2022/05/18 05:51:47;;;;;;;11.85;7.10;;;;;;;15.59;69.00;101546.22;5015259;28;20034;-81
2022/05/18 05:59:01;;;;;;;;;;;;;;;;;;;;;
2022/05/18 06:01:41;;;;;;;10.82;7.80;;;;;;;15.67;69.04;101555.03;5016971;28;20052;-80
2022/05/18 06:08:00;;;;;;;9.27;6.85;;;;;;;15.74;68.55;101562.06;5017748;28;20100;-80
2022/05/18 06:10:29;;;;;;;9.95;7.22;;;;;;;15.81;68.09;101562.91;4996077;28;20500;-80
2022/05/18 06:12:54;;;;;;;8.60;6.15;;;;;;;15.82;67.74;101564.66;4999196;28;20133;-80
2022/05/18 06:15:25;;;;;;;10.35;6.45;;;;;;;15.86;67.73;101561.06;5005711;28;20038;-80
2022/05/18 06:19:12;;;;;;;10.23;7.35;;;;;;;15.92;67.62;101563.66;4981230;28;20130;-80
2022/05/18 06:31:59;;;;;;;;;;;;;;;;;;;;;
2022/05/18 06:39:31;;;;;;;10.15;7.15;;;;;;;16.38;66.25;101579.94;4926173;29;20039;-81
2022/05/18 06:50:16;;;;;;;10.05;5.32;;;;;;;16.80;64.86;101579.38;4832991;29;20044;-80
2022/05/18 06:52:41;;;;;;;8.85;5.65;;;;;;;16.89;65.02;101584.56;4913014;29;20052;-80
2022/05/18 06:55:07;;;;;;;9.05;6.30;;;;;;;16.99;64.69;101579.97;4930773;29;20039;-80
2022/05/18 06:57:32;;;;;;;10.98;6.20;;;;;;;17.05;64.37;101586.06;4987649;28;20046;-80
2022/05/18 06:59:58;;;;;;;12.27;5.97;;;;;;;17.12;64.16;101593.97;4989383;28;20039;-80
2022/05/18 07:02:23;;;;;;;9.23;6.93;;;;;;;17.21;64.09;101592.06;4987418;28;20121;-80
2022/05/18 07:12:09;;;;;;;10.88;6.20;;;;;;;17.49;63.35;101596.91;4984409;28;20073;-79
2022/05/18 07:25:57;;;;;;;9.82;7.10;;;;;;;18.06;62.12;101603.88;4984961;28;20112;-81
2022/05/18 07:28:23;;;;;;;8.35;5.20;;;;;;;18.18;61.57;101592.91;4970839;28;20054;-81
2022/05/18 07:30:50;;;;;;;11.55;6.07;;;;;;;18.29;61.24;101600.72;4995002;28;20035;-80
2022/05/18 07:33:16;;;;;;;8.55;5.82;;;;;;;18.38;61.10;101596.06;4989465;28;20031;-81
2022/05/18 07:35:42;;;;;;;9.65;6.78;;;;;;;18.51;61.06;101595.78;4990174;28;20058;-80
2022/05/18 07:38:08;;;;;;;11.75;5.78;;;;;;;18.60;60.82;101590.22;5005788;28;20053;-79
2022/05/18 07:40:34;;;;;;;8.90;6.22;;;;;;;18.64;60.25;101594.59;4992644;28;20050;-80
2022/05/18 07:43:01;;;;;;;9.10;5.10;;;;;;;18.74;60.64;101593.47;5003625;28;20045;-81
2022/05/18 07:45:27;;;;;;;7.18;4.60;;;;;;;18.77;60.21;101587.22;4987951;28;20490;-80
2022/05/18 07:47:53;;;;;;;10.35;6.85;;;;;;;18.82;59.97;101582.63;5007225;28;20026;-80
2022/05/18 07:50:23;;;;;;;9.32;6.50;;;;;;;18.94;60.07;101584.13;4989397;28;20552;-80
2022/05/18 07:52:51;;;;;;;7.85;5.57;;;;;;;19.08;60.08;101590.03;4987257;28;20043;-80
2022/05/18 07:55:16;;;;;;;8.73;4.90;;;;;;;19.16;59.55;101592.53;5007552;28;20122;-79
2022/05/18 07:57:42;;;;;;;5.97;4.57;;;;;;;19.28;59.22;101589.50;4989797;28;20089;-80
2022/05/18 08:00:08;;;;;;;7.85;5.32;;;;;;;19.39;59.04;101583.91;5019312;28;20505;-80
2022/05/18 08:02:37;;;;;;;7.90;4.57;;;;;;;19.43;58.88;101580.22;4993665;28;20066;-80
2022/05/18 08:05:03;;;;;;;6.38;4.50;;;;;;;19.36;58.31;101584.88;4985872;28;20469;-80
2022/05/18 08:07:29;;;;;;;8.02;4.07;;;;;;;19.46;58.88;101588.16;4986061;28;20058;-79
2022/05/18 08:15:23;;;;;;;7.72;4.68;;;;;;;19.95;58.69;101577.97;4999819;28;20058;-80
2022/05/18 08:17:49;;;;;;;10.10;7.03;;;;;;;20.11;58.53;101574.78;4985197;28;20034;-80
2022/05/18 08:20:17;;;;;;;9.15;5.50;;;;;;;20.27;58.05;101571.66;4987086;28;20050;-80
2022/05/18 08:22:44;;;;;;;11.23;4.70;;;;;;;20.38;57.67;101574.88;5001951;28;20038;-80
2022/05/18 08:25:10;;;;;;;7.63;5.22;;;;;;;20.47;56.92;101579.09;4998070;28;20030;-80
2022/05/18 08:27:44;;;;;;;7.97;5.75;;;;;;;20.55;56.22;101579.75;5009698;28;20064;-80
2022/05/18 08:30:13;;;;;;;11.60;8.38;;;;;;;20.62;55.74;101570.63;5004986;28;20030;-80
2022/05/18 08:32:38;;;;;;;7.82;5.82;;;;;;;20.73;56.27;101570.28;5015937;28;20045;-80
2022/05/18 08:35:04;;;;;;;10.27;6.97;;;;;;;20.93;56.48;101570.50;5010569;28;20026;-80
2022/05/18 08:37:30;;;;;;;15.48;8.40;;;;;;;21.09;55.18;101567.28;4991044;28;20066;-80
2022/05/18 08:39:55;;;;;;;7.80;5.45;;;;;;;21.22;54.98;101574.91;5024871;28;20065;-81
2022/05/18 08:42:22;;;;;;;11.85;6.78;;;;;;;21.38;54.73;101564.53;5011127;28;20030;-80
2022/05/18 08:44:49;;;;;;;10.35;6.53;;;;;;;21.54;54.43;101570.25;4992649;28;20034;-80
2022/05/18 08:47:32;;;;;;;8.30;5.65;;;;;;;21.65;53.03;101567.19;5005097;28;20034;-81
2022/05/18 08:50:00;;;;;;;7.93;5.93;;;;;;;21.79;53.37;101563.97;5003538;28;20038;-80
2022/05/18 08:52:44;;;;;;;9.25;5.82;;;;;;;21.98;53.43;101554.31;5009939;28;20184;-80
2022/05/18 08:55:35;;;;;;;8.00;5.13;;;;;;;22.15;53.21;101559.06;5002981;28;20041;-80
2022/05/18 08:58:01;;;;;;;11.05;6.68;;;;;;;22.31;52.43;101549.47;5007901;28;20040;-80
2022/05/18 09:00:35;;;;;;;10.95;6.63;;;;;;;22.45;51.66;101558.81;5004734;28;20094;-80
2022/05/18 09:03:05;;;;;;;9.05;5.95;;;;;;;22.60;51.79;101550.16;5004986;28;20374;-80
2022/05/18 09:05:45;;;;;;;7.80;4.30;;;;;;;22.58;49.74;101554.69;5004671;28;20030;-80
2022/05/18 09:08:17;;;;;;;8.35;4.32;;;;;;;22.63;50.08;101549.16;5005571;28;20030;-80
2022/05/18 09:23:01;;;;;;;12.27;6.25;;;;;;;23.12;48.03;101548.03;5093582;23;19981;-79
2022/05/18 09:29:44;;;;;;;10.70;4.38;;;;;;;23.37;48.15;101541.56;5005936;28;20061;-79
2022/05/18 09:32:44;;;;;;;6.97;4.10;;;;;;;23.67;47.23;101535.78;5020172;28;20105;-80
2022/05/18 09:35:28;;;;;;;7.90;4.97;;;;;;;23.88;45.71;101542.06;5004566;28;20050;-81
2022/05/18 09:38:05;;;;;;;7.00;3.92;;;;;;;23.89;44.55;101546.50;5016651;28;20030;-80
2022/05/18 09:40:40;;;;;;;7.13;5.47;;;;;;;23.94;45.43;101539.06;4995377;28;20060;-80
2022/05/18 09:43:24;;;;;;;12.90;8.50;;;;;;;24.13;45.89;101537.28;5001105;28;20597;-80
2022/05/18 09:45:49;;;;;;;16.33;8.63;;;;;;;24.27;45.28;101542.03;5025132;28;20438;-80
2022/05/18 09:48:34;;;;;;;9.30;4.82;;;;;;;24.36;43.35;101535.31;5005550;28;20041;-80
2022/05/18 09:51:12;;;;;;;7.55;6.05;;;;;;;24.39;43.58;101536.06;5000956;28;20078;-81
2022/05/18 09:53:40;;;;;;;8.05;6.47;;;;;;;24.39;44.09;101533.34;5020851;28;20104;-80
2022/05/18 09:56:15;;;;;;;11.82;8.25;;;;;;;24.62;43.80;101529.53;5006688;28;20097;-81
2022/05/18 09:58:45;;;;;;;8.73;5.68;;;;;;;24.81;42.34;101531.34;5003108;28;20408;-79
2022/05/18 10:09:46;;;;;;;6.05;3.70;;;;;;;25.03;39.61;101525.75;5007378;28;20077;-79
2022/05/18 10:12:31;;;;;;;7.45;6.30;;;;;;;25.28;39.95;101515.47;5005009;28;20041;-80
2022/05/18 10:15:03;;;;;;;6.88;5.97;;;;;;;25.52;40.71;101523.22;4997106;28;20042;-81
2022/05/18 10:17:35;;;;;;;14.48;4.57;;;;;;;25.75;38.82;101519.28;5000092;28;20034;-80
2022/05/18 10:20:06;;;;;;;;;;;;;;;25.79;37.02;101515.47;5000931;28;20037;-81
2022/05/18 10:22:37;;;;;;;4.22;2.97;;;;;;;25.82;37.56;101512.59;5000563;28;20359;-80
2022/05/18 10:25:14;;;;;;;4.88;2.90;;;;;;;25.54;36.32;101515.88;4996195;28;20109;-81
2022/05/18 10:27:44;;;;;;;7.53;2.60;;;;;;;25.40;37.74;101513.94;5011327;28;20045;-80
2022/05/18 10:30:28;;;;;;;8.32;4.47;;;;;;;25.48;37.10;101511.69;5018188;28;20027;-80
2022/05/18 10:33:07;;;;;;;7.97;4.10;;;;;;;25.54;37.43;101510.47;5007819;28;20037;-79
2022/05/18 10:35:46;;;;;;;9.55;5.40;;;;;;;25.78;37.98;101509.19;5018656;28;20180;-80
2022/05/18 10:38:34;;;;;;;6.90;5.00;;;;;;;26.01;36.08;101512.47;5015947;28;20030;-80
2022/05/18 10:41:09;;;;;;;8.38;4.63;;;;;;;26.14;35.51;101502.72;4999876;28;20042;-80
2022/05/18 10:43:38;;;;;;;7.38;3.20;;;;;;;26.28;35.13;101501.94;5074202;22;20060;-80
2022/05/18 10:46:19;;;;;;;5.65;2.80;;;;;;;26.24;34.41;101501.22;5030592;28;20034;-80
2022/05/18 10:48:58;;;;;;;5.68;3.03;;;;;;;26.08;34.53;101494.94;5030276;28;20033;-80
2022/05/18 10:51:39;;;;;;;6.68;3.20;;;;;;;26.28;34.26;101493.84;5016325;28;20048;-81
2022/05/18 10:54:13;;;;;;;4.63;2.53;;;;;;;26.37;35.11;101496.00;5016532;28;20056;-81
2022/05/18 10:56:41;;;;;;;5.75;3.60;;;;;;;26.50;35.05;101501.59;4987943;28;20069;-81
2022/05/18 10:59:50;;;;;;;7.68;4.22;;;;;;;26.63;33.71;101494.53;4995474;28;20409;-80
2022/05/18 11:02:29;;;;;;;5.95;2.55;;;;;;;26.57;32.79;101480.50;4962946;28;20038;-79
2022/05/18 11:05:19;;;;;;;9.75;4.50;;;;;;;26.44;33.87;101481.16;4981652;28;20472;-81
2022/05/18 11:07:45;;;;;;;8.27;4.00;;;;;;;26.65;34.70;101486.34;5003395;28;20125;-81
2022/05/18 11:10:11;;;;;;;6.93;3.72;;;;;;;26.86;34.06;101486.91;5007939;28;20080;-81
2022/05/18 11:12:49;;;;;;;6.88;3.90;;;;;;;27.19;32.79;101483.16;5007869;28;20030;-81
2022/05/18 11:15:20;;;;;;;4.40;2.83;;;;;;;27.43;32.01;101476.22;5005792;28;20053;-81
2022/05/18 11:17:51;;;;;;;7.10;2.55;;;;;;;27.49;31.61;101470.41;5007457;28;20065;-81
2022/05/18 11:20:35;;;;;;;8.10;3.55;;;;;;;27.58;31.13;101470.81;5008674;28;20072;-81
2022/05/18 11:23:28;;;;;;;5.75;3.30;;;;;;;27.73;31.27;101473.41;5001328;28;20125;-81
2022/05/18 11:26:06;;;;;;;6.22;3.72;;;;;;;27.68;30.52;101471.97;4998852;28;20057;-81
2022/05/18 11:28:38;;;;;;;9.57;5.93;;;;;;;27.88;30.94;101466.19;4995565;28;20045;-81
2022/05/18 11:31:40;;;;;;;6.63;3.10;;;;;;;27.95;29.74;101461.22;4989379;28;20073;-82
2022/05/18 11:34:12;;;;;;;;;;;;;;;28.19;29.57;101456.03;4983294;28;20034;-81
2022/05/18 11:36:47;;;;;;;7.30;4.88;;;;;;;28.58;30.22;101466.16;5007747;28;20014;-81
2022/05/18 11:39:33;;;;;;;11.85;3.78;;;;;;;29.05;28.91;101456.59;4979951;28;20042;-80
2022/05/18 11:42:25;;;;;;;7.45;4.68;;;;;;;29.47;29.03;101448.25;5004590;28;20041;-80
2022/05/18 11:44:59;;;;;;;;;;;;;;;29.70;28.49;101444.78;5007476;28;20038;-80
2022/05/18 11:47:38;;;;;;;9.02;3.08;;;;;;;29.93;28.64;101447.69;4965196;28;20300;-80
2022/05/18 11:50:04;;;;;;;6.95;3.28;;;;;;;29.99;28.41;101440.94;5001665;28;20030;-80
2022/05/18 11:52:41;;;;;;;7.28;3.28;;;;;;;30.05;28.17;101446.81;5004234;28;20581;-80
2022/05/18 11:55:25;;;;;;;7.10;4.95;;;;;;;30.43;27.61;101445.81;5006869;28;20060;-80
2022/05/18 11:58:13;;;;;;;6.07;3.65;;;;;;;30.75;27.69;101431.56;5005208;28;20117;-80
2022/05/18 12:01:08;;;;;;;8.48;6.25;;;;;;;30.56;27.47;101435.72;5005110;28;20042;-80
2022/05/18 12:03:39;;;;;;;7.90;6.20;;;;;;;31.05;27.96;101438.38;4984871;28;20042;-80
2022/05/18 12:06:10;;;;;;;;;;;;;;;31.23;26.29;101436.94;4975538;28;20777;-80
2022/05/18 12:08:46;;;;;;;7.28;4.85;;;;;;;31.60;27.36;101439.50;4997825;28;20607;-80
2022/05/18 12:11:20;;;;;;;7.32;3.83;;;;;;;31.68;25.80;101437.03;5007876;28;20033;-80
2022/05/18 12:14:16;;;;;;;10.73;6.18;;;;;;;31.42;26.85;101420.88;4981578;28;20038;-80
2022/05/18 12:17:19;;;;;;;12.52;8.88;;;;;;;31.21;27.08;101419.84;4999840;28;20057;-81
2022/05/18 12:20:04;;;;;;;9.38;7.88;;;;;;;31.88;26.64;101428.03;4961147;28;20050;-80
2022/05/18 12:22:42;;;;;;;8.65;5.88;;;;;;;32.58;25.10;101428.69;5004115;28;20038;-80
2022/05/18 12:25:10;;;;;;;8.00;7.18;;;;;;;32.68;23.97;101421.44;5005485;28;20034;-80
2022/05/18 12:27:36;;;;;;;12.20;7.65;;;;;;;33.17;24.74;101427.28;5007855;28;20053;-80
2022/05/18 12:30:06;;;;;;;7.65;4.65;;;;;;;33.37;23.58;101418.16;5004395;28;20121;-80
2022/05/18 12:32:33;;;;;;;6.00;4.10;;;;;;;33.26;23.58;101420.13;5004187;28;20040;-80
2022/05/18 12:35:12;;;;;;;8.13;6.32;;;;;;;33.63;23.50;101422.34;5006337;28;20053;-80
2022/05/18 12:38:02;;;;;;;6.25;4.13;;;;;;;34.12;22.30;101415.19;5001983;28;20038;-80
2022/05/18 12:40:49;;;;;;;7.00;4.10;;;;;;;34.50;22.31;101421.69;5002032;28;20042;-80
2022/05/18 12:43:33;;;;;;;11.02;5.30;;;;;;;33.99;23.23;101421.75;5000254;28;20505;-80
2022/05/18 12:46:20;;;;;;;9.10;7.72;;;;;;;34.31;23.05;101420.69;5001150;28;20027;-81
2022/05/18 12:48:59;;;;;;;6.13;3.58;;;;;;;33.64;22.82;101413.97;5000828;28;20045;-80
2022/05/18 12:51:28;;;;;;;8.57;5.22;;;;;;;33.58;23.25;101415.41;4999262;28;20030;-80
2022/05/18 12:54:12;;;;;;;8.45;5.50;;;;;;;34.13;22.54;101403.22;5003904;28;20029;-80
2022/05/18 12:56:37;;;;;;;7.57;3.60;;;;;;;34.44;22.80;101402.06;4988707;28;20042;-80
2022/05/18 12:59:10;;;;;;;10.23;6.77;;;;;;;35.18;22.48;101403.34;5004786;28;20030;-80
2022/05/18 13:01:39;;;;;;;5.47;4.57;;;;;;;35.30;21.30;101398.56;5000738;28;20331;-80
2022/05/18 13:04:10;;;;;;;6.20;3.38;;;;;;;36.05;20.75;101399.34;4984442;28;20535;-80
2022/05/18 13:06:35;;;;;;;7.28;5.07;;;;;;;36.64;21.10;101397.91;4989811;28;20048;-80
2022/05/18 13:09:25;;;;;;;9.60;7.50;;;;;;;37.10;19.72;101400.56;5000861;28;20038;-80
2022/05/18 13:12:10;;;;;;;9.15;7.10;;;;;;;37.40;20.19;101396.41;4977142;28;20297;-80
2022/05/18 13:14:56;;;;;;;6.63;5.75;;;;;;;37.55;19.05;101398.59;5006371;28;20034;-81
2022/05/18 13:17:23;;;;;;;8.32;7.32;;;;;;;37.49;19.50;101389.94;4987838;28;20042;-81
2022/05/18 13:20:04;;;;;;;6.00;3.40;;;;;;;37.68;18.15;101394.34;4977903;28;20034;-81
2022/05/18 13:22:48;;;;;;;8.13;5.38;;;;;;;37.36;18.56;101389.50;5003762;28;20072;-81
2022/05/18 13:25:14;;;;;;;6.88;4.60;;;;;;;37.20;19.38;101390.25;5001508;28;20029;-81
2022/05/18 13:27:48;;;;;;;8.18;3.80;;;;;;;36.88;19.82;101390.88;4985775;28;20038;-80
2022/05/18 13:30:20;;;;;;;5.15;4.03;;;;;;;35.88;20.35;101392.81;5006743;28;20052;-81
2022/05/18 13:32:47;;;;;;;5.80;4.93;;;;;;;35.20;20.87;101382.13;5003098;28;20393;-81
2022/05/18 13:35:24;;;;;;;8.05;7.25;;;;;;;34.41;22.17;101385.94;4964307;28;20044;-81
2022/05/18 13:38:11;;;;;;;13.50;7.75;;;;;;;35.45;21.08;101379.69;5000709;28;20041;-81
2022/05/18 13:40:40;;;;;;;8.02;7.22;;;;;;;36.59;20.88;101380.19;5000103;28;20038;-81
2022/05/18 13:43:06;;;;;;;9.43;7.63;;;;;;;37.40;19.69;101381.78;5006360;28;20125;-80
2022/05/18 13:45:33;;;;;;;9.68;6.70;;;;;;;38.08;19.52;101369.84;5002465;28;20113;-81
2022/05/18 13:47:59;;;;;;;8.32;5.68;;;;;;;38.40;18.73;101381.97;4976722;28;20034;-81
2022/05/18 13:50:46;;;;;;;7.80;4.57;;;;;;;38.78;18.31;101367.50;5004966;28;20041;-80
2022/05/18 13:53:20;;;;;;;8.57;5.65;;;;;;;38.65;17.72;101372.69;5005720;28;20038;-80
2022/05/18 13:55:48;;;;;;;10.95;8.73;;;;;;;38.86;18.54;101366.63;5003030;28;20038;-81
2022/05/18 13:58:20;;;;;;;9.57;8.57;;;;;;;38.80;17.96;101362.69;5005055;28;20041;-81
2022/05/18 14:01:02;;;;;;;11.95;7.90;;;;;;;38.20;18.82;101365.75;5001843;28;20484;-81
2022/05/18 14:03:41;;;;;;;9.07;7.28;;;;;;;37.83;19.48;101358.72;4996946;28;20030;-81
2022/05/18 14:06:21;;;;;;;7.57;3.92;;;;;;;37.42;19.77;101372.34;5001081;28;20503;-80
2022/05/18 14:08:50;;;;;;;8.55;6.93;;;;;;;36.34;20.97;101368.06;5001907;28;20090;-80